sensor_id;sensor_type;location;lat;lon;timestamp;P1;durP1;ratioP1;P2;durP2;ratioP2
72198;SDS011;60103;51.014;16.992;2023-04-15T00:01:11;37.60;;;19.10;;
72198;SDS011;60103;51.014;16.992;2023-04-15T00:03:47;37.20;;;17.80;;
72198;SDS011;60103;51.014;16.992;2023-04-15T00:06:18;32.60;;;16.20;;
72198;SDS011;60103;51.014;16.992;2023-04-15T00:08:51;27.80;;;13.20;;
72198;SDS011;60103;51.014;16.992;2023-04-15T00:11:20;26.40;;;14.10;;
72198;SDS011;60103;51.014;16.992;2023-04-15T00:13:49;23.60;;;11.80;;
72198;SDS011;60103;51.014;16.992;2023-04-15T00:16:18;25.00;;;11.50;;
72198;SDS011;60103;51.014;16.992;2023-04-15T00:18:47;21.30;;;11.10;;
72198;SDS011;60103;51.014;16.992;2023-04-15T00:21:16;19.20;;;10.30;;
72198;SDS011;60103;51.014;16.992;2023-04-15T00:23:45;18.40;;;9.20;;
72198;SDS011;60103;51.014;16.992;2023-04-15T00:26:17;15.60;;;7.70;;
72198;SDS011;60103;51.014;16.992;2023-04-15T00:28:47;16.80;;;8.30;;
72198;SDS011;60103;51.014;16.992;2023-04-15T00:31:16;16.80;;;7.60;;
72198;SDS011;60103;51.014;16.992;2023-04-15T00:33:46;19.40;;;8.50;;
72198;SDS011;60103;51.014;16.992;2023-04-15T00:36:15;16.60;;;8.50;;
72198;SDS011;60103;51.014;16.992;2023-04-15T00:38:46;17.30;;;8.80;;
72198;SDS011;60103;51.014;16.992;2023-04-15T00:41:15;15.40;;;8.10;;
72198;SDS011;60103;51.014;16.992;2023-04-15T00:43:46;17.80;;;9.10;;
72198;SDS011;60103;51.014;16.992;2023-04-15T00:46:15;17.40;;;8.90;;
72198;SDS011;60103;51.014;16.992;2023-04-15T00:48:45;18.50;;;8.80;;
72198;SDS011;60103;51.014;16.992;2023-04-15T00:51:14;16.50;;;8.00;;
72198;SDS011;60103;51.014;16.992;2023-04-15T00:53:43;15.30;;;8.50;;
72198;SDS011;60103;51.014;16.992;2023-04-15T00:56:12;16.90;;;9.40;;
72198;SDS011;60103;51.014;16.992;2023-04-15T00:58:41;19.30;;;9.30;;
72198;SDS011;60103;51.014;16.992;2023-04-15T01:01:11;21.70;;;11.20;;
72198;SDS011;60103;51.014;16.992;2023-04-15T01:03:40;18.20;;;10.60;;
72198;SDS011;60103;51.014;16.992;2023-04-15T01:06:10;20.80;;;10.70;;
72198;SDS011;60103;51.014;16.992;2023-04-15T01:08:39;20.50;;;11.30;;
72198;SDS011;60103;51.014;16.992;2023-04-15T01:11:08;19.40;;;10.80;;
72198;SDS011;60103;51.014;16.992;2023-04-15T01:13:38;20.70;;;12.10;;
72198;SDS011;60103;51.014;16.992;2023-04-15T01:16:08;17.10;;;10.00;;
72198;SDS011;60103;51.014;16.992;2023-04-15T01:18:37;20.60;;;11.50;;
72198;SDS011;60103;51.014;16.992;2023-04-15T01:21:06;21.30;;;11.40;;
72198;SDS011;60103;51.014;16.992;2023-04-15T01:23:36;18.50;;;9.20;;
72198;SDS011;60103;51.014;16.992;2023-04-15T01:26:07;21.50;;;12.40;;
72198;SDS011;60103;51.014;16.992;2023-04-15T01:28:39;19.60;;;10.60;;
72198;SDS011;60103;51.014;16.992;2023-04-15T01:31:08;19.50;;;9.90;;
72198;SDS011;60103;51.014;16.992;2023-04-15T01:33:41;18.20;;;10.30;;
72198;SDS011;60103;51.014;16.992;2023-04-15T01:36:10;17.20;;;8.90;;
72198;SDS011;60103;51.014;16.992;2023-04-15T01:38:39;17.00;;;8.70;;
72198;SDS011;60103;51.014;16.992;2023-04-15T01:41:08;18.30;;;9.40;;
72198;SDS011;60103;51.014;16.992;2023-04-15T01:43:37;17.40;;;9.20;;
72198;SDS011;60103;51.014;16.992;2023-04-15T01:46:05;19.10;;;10.20;;
72198;SDS011;60103;51.014;16.992;2023-04-15T01:48:35;19.30;;;9.10;;
72198;SDS011;60103;51.014;16.992;2023-04-15T01:51:04;16.30;;;8.80;;
72198;SDS011;60103;51.014;16.992;2023-04-15T01:53:33;17.10;;;8.50;;
72198;SDS011;60103;51.014;16.992;2023-04-15T01:56:02;15.60;;;8.50;;
72198;SDS011;60103;51.014;16.992;2023-04-15T01:58:31;14.10;;;7.60;;
72198;SDS011;60103;51.014;16.992;2023-04-15T02:01:00;15.60;;;7.60;;
72198;SDS011;60103;51.014;16.992;2023-04-15T02:03:31;15.00;;;8.30;;
72198;SDS011;60103;51.014;16.992;2023-04-15T02:06:00;16.70;;;8.60;;
72198;SDS011;60103;51.014;16.992;2023-04-15T02:08:29;19.90;;;9.80;;
72198;SDS011;60103;51.014;16.992;2023-04-15T02:10:58;16.90;;;8.30;;
72198;SDS011;60103;51.014;16.992;2023-04-15T02:13:28;16.70;;;8.50;;
72198;SDS011;60103;51.014;16.992;2023-04-15T02:15:57;15.50;;;8.40;;
72198;SDS011;60103;51.014;16.992;2023-04-15T02:18:27;17.40;;;9.30;;
72198;SDS011;60103;51.014;16.992;2023-04-15T02:20:55;15.80;;;7.50;;
72198;SDS011;60103;51.014;16.992;2023-04-15T02:23:25;15.30;;;7.00;;
72198;SDS011;60103;51.014;16.992;2023-04-15T02:25:54;19.20;;;8.90;;
72198;SDS011;60103;51.014;16.992;2023-04-15T02:28:23;17.50;;;8.90;;
72198;SDS011;60103;51.014;16.992;2023-04-15T02:30:53;15.90;;;8.70;;
72198;SDS011;60103;51.014;16.992;2023-04-15T02:33:24;14.40;;;7.10;;
72198;SDS011;60103;51.014;16.992;2023-04-15T02:35:53;19.10;;;9.60;;
72198;SDS011;60103;51.014;16.992;2023-04-15T02:38:22;16.40;;;8.40;;
72198;SDS011;60103;51.014;16.992;2023-04-15T02:40:51;18.20;;;9.40;;
72198;SDS011;60103;51.014;16.992;2023-04-15T02:43:20;19.40;;;9.50;;
72198;SDS011;60103;51.014;16.992;2023-04-15T02:45:49;20.60;;;10.70;;
72198;SDS011;60103;51.014;16.992;2023-04-15T02:48:20;20.00;;;9.90;;
72198;SDS011;60103;51.014;16.992;2023-04-15T02:50:49;23.10;;;10.90;;
72198;SDS011;60103;51.014;16.992;2023-04-15T02:53:19;19.10;;;9.50;;
72198;SDS011;60103;51.014;16.992;2023-04-15T02:55:48;19.90;;;10.20;;
72198;SDS011;60103;51.014;16.992;2023-04-15T02:58:16;17.80;;;9.70;;
72198;SDS011;60103;51.014;16.992;2023-04-15T03:00:45;20.10;;;10.10;;
72198;SDS011;60103;51.014;16.992;2023-04-15T03:03:14;20.20;;;10.00;;
72198;SDS011;60103;51.014;16.992;2023-04-15T03:05:43;19.60;;;9.50;;
72198;SDS011;60103;51.014;16.992;2023-04-15T03:08:13;21.10;;;10.30;;
72198;SDS011;60103;51.014;16.992;2023-04-15T03:10:42;19.50;;;10.00;;
72198;SDS011;60103;51.014;16.992;2023-04-15T03:13:10;21.50;;;11.00;;
72198;SDS011;60103;51.014;16.992;2023-04-15T03:15:39;23.70;;;11.20;;
72198;SDS011;60103;51.014;16.992;2023-04-15T03:18:09;19.80;;;9.90;;
72198;SDS011;60103;51.014;16.992;2023-04-15T03:20:40;22.70;;;10.60;;
72198;SDS011;60103;51.014;16.992;2023-04-15T03:23:09;21.40;;;9.50;;
72198;SDS011;60103;51.014;16.992;2023-04-15T03:25:39;19.20;;;8.30;;
72198;SDS011;60103;51.014;16.992;2023-04-15T03:28:08;13.10;;;6.30;;
72198;SDS011;60103;51.014;16.992;2023-04-15T03:30:36;11.70;;;4.70;;
72198;SDS011;60103;51.014;16.992;2023-04-15T03:33:05;9.80;;;4.20;;
72198;SDS011;60103;51.014;16.992;2023-04-15T03:35:34;9.20;;;3.20;;
72198;SDS011;60103;51.014;16.992;2023-04-15T03:38:03;7.30;;;2.80;;
72198;SDS011;60103;51.014;16.992;2023-04-15T03:40:32;6.10;;;1.90;;
72198;SDS011;60103;51.014;16.992;2023-04-15T03:43:01;6.70;;;2.30;;
72198;SDS011;60103;51.014;16.992;2023-04-15T03:45:30;7.20;;;2.50;;
72198;SDS011;60103;51.014;16.992;2023-04-15T03:47:59;6.90;;;2.30;;
72198;SDS011;60103;51.014;16.992;2023-04-15T03:50:44;6.30;;;2.10;;
72198;SDS011;60103;51.014;16.992;2023-04-15T03:53:13;6.10;;;1.90;;
72198;SDS011;60103;51.014;16.992;2023-04-15T03:55:43;6.70;;;2.30;;
72198;SDS011;60103;51.014;16.992;2023-04-15T03:58:12;6.70;;;2.30;;
72198;SDS011;60103;51.014;16.992;2023-04-15T04:00:41;6.70;;;2.20;;
72198;SDS011;60103;51.014;16.992;2023-04-15T04:03:10;7.50;;;2.90;;
72198;SDS011;60103;51.014;16.992;2023-04-15T04:05:39;7.20;;;2.30;;
72198;SDS011;60103;51.014;16.992;2023-04-15T04:08:08;6.60;;;2.10;;
72198;SDS011;60103;51.014;16.992;2023-04-15T04:10:38;6.90;;;2.70;;
72198;SDS011;60103;51.014;16.992;2023-04-15T04:13:07;6.00;;;1.90;;
72198;SDS011;60103;51.014;16.992;2023-04-15T04:15:36;6.70;;;2.10;;
72198;SDS011;60103;51.014;16.992;2023-04-15T04:18:04;6.40;;;2.20;;
72198;SDS011;60103;51.014;16.992;2023-04-15T04:20:33;6.40;;;2.00;;
72198;SDS011;60103;51.014;16.992;2023-04-15T04:23:02;6.50;;;2.10;;
72198;SDS011;60103;51.014;16.992;2023-04-15T04:25:31;5.70;;;1.60;;
72198;SDS011;60103;51.014;16.992;2023-04-15T04:28:00;6.10;;;2.10;;
72198;SDS011;60103;51.014;16.992;2023-04-15T04:30:29;5.70;;;1.80;;
72198;SDS011;60103;51.014;16.992;2023-04-15T04:32:57;5.80;;;2.00;;
72198;SDS011;60103;51.014;16.992;2023-04-15T04:35:26;5.90;;;1.90;;
72198;SDS011;60103;51.014;16.992;2023-04-15T04:37:55;7.10;;;1.90;;
72198;SDS011;60103;51.014;16.992;2023-04-15T04:40:24;6.20;;;1.80;;
72198;SDS011;60103;51.014;16.992;2023-04-15T04:42:53;5.00;;;1.70;;
72198;SDS011;60103;51.014;16.992;2023-04-15T04:45:22;5.10;;;1.70;;
72198;SDS011;60103;51.014;16.992;2023-04-15T04:47:51;5.90;;;1.80;;
72198;SDS011;60103;51.014;16.992;2023-04-15T04:50:20;4.30;;;1.40;;
72198;SDS011;60103;51.014;16.992;2023-04-15T04:52:49;5.10;;;1.60;;
72198;SDS011;60103;51.014;16.992;2023-04-15T04:55:18;5.80;;;1.60;;
72198;SDS011;60103;51.014;16.992;2023-04-15T04:57:47;5.70;;;1.50;;
72198;SDS011;60103;51.014;16.992;2023-04-15T05:00:15;5.20;;;1.60;;
72198;SDS011;60103;51.014;16.992;2023-04-15T05:02:44;4.60;;;1.30;;
72198;SDS011;60103;51.014;16.992;2023-04-15T05:05:13;6.00;;;1.50;;
72198;SDS011;60103;51.014;16.992;2023-04-15T05:07:42;5.50;;;1.70;;
72198;SDS011;60103;51.014;16.992;2023-04-15T05:10:11;6.00;;;1.70;;
72198;SDS011;60103;51.014;16.992;2023-04-15T05:12:42;7.30;;;2.30;;
72198;SDS011;60103;51.014;16.992;2023-04-15T05:15:11;7.20;;;2.20;;
72198;SDS011;60103;51.014;16.992;2023-04-15T05:17:40;6.60;;;1.90;;
72198;SDS011;60103;51.014;16.992;2023-04-15T05:20:08;6.40;;;2.10;;
72198;SDS011;60103;51.014;16.992;2023-04-15T05:22:39;6.20;;;1.90;;
72198;SDS011;60103;51.014;16.992;2023-04-15T05:25:08;6.50;;;2.30;;
72198;SDS011;60103;51.014;16.992;2023-04-15T05:27:37;6.40;;;1.90;;
72198;SDS011;60103;51.014;16.992;2023-04-15T05:30:06;6.10;;;1.90;;
72198;SDS011;60103;51.014;16.992;2023-04-15T05:32:37;6.30;;;2.10;;
72198;SDS011;60103;51.014;16.992;2023-04-15T05:35:06;5.20;;;1.50;;
72198;SDS011;60103;51.014;16.992;2023-04-15T05:37:35;4.60;;;1.40;;
72198;SDS011;60103;51.014;16.992;2023-04-15T05:40:04;4.40;;;1.20;;
72198;SDS011;60103;51.014;16.992;2023-04-15T05:42:34;5.20;;;1.60;;
72198;SDS011;60103;51.014;16.992;2023-04-15T05:45:03;4.40;;;1.20;;
72198;SDS011;60103;51.014;16.992;2023-04-15T05:47:36;4.30;;;1.20;;
72198;SDS011;60103;51.014;16.992;2023-04-15T05:50:05;5.40;;;1.90;;
72198;SDS011;60103;51.014;16.992;2023-04-15T05:52:35;5.20;;;1.60;;
72198;SDS011;60103;51.014;16.992;2023-04-15T05:55:04;4.60;;;1.40;;
72198;SDS011;60103;51.014;16.992;2023-04-15T05:57:34;4.70;;;1.40;;
72198;SDS011;60103;51.014;16.992;2023-04-15T06:00:03;4.60;;;1.30;;
72198;SDS011;60103;51.014;16.992;2023-04-15T06:02:36;4.80;;;1.50;;
72198;SDS011;60103;51.014;16.992;2023-04-15T06:05:05;4.40;;;1.20;;
72198;SDS011;60103;51.014;16.992;2023-04-15T06:07:39;4.90;;;1.60;;
72198;SDS011;60103;51.014;16.992;2023-04-15T06:10:08;4.50;;;1.10;;
72198;SDS011;60103;51.014;16.992;2023-04-15T06:12:37;4.90;;;1.20;;
72198;SDS011;60103;51.014;16.992;2023-04-15T06:15:06;4.60;;;1.30;;
72198;SDS011;60103;51.014;16.992;2023-04-15T06:17:37;4.80;;;1.30;;
72198;SDS011;60103;51.014;16.992;2023-04-15T06:20:06;3.80;;;1.20;;
72198;SDS011;60103;51.014;16.992;2023-04-15T06:22:36;4.70;;;1.30;;
72198;SDS011;60103;51.014;16.992;2023-04-15T06:25:06;4.10;;;1.20;;
72198;SDS011;60103;51.014;16.992;2023-04-15T06:27:36;4.70;;;1.40;;
72198;SDS011;60103;51.014;16.992;2023-04-15T06:30:05;5.10;;;1.20;;
72198;SDS011;60103;51.014;16.992;2023-04-15T06:32:34;5.20;;;1.40;;
72198;SDS011;60103;51.014;16.992;2023-04-15T06:35:04;4.60;;;1.30;;
72198;SDS011;60103;51.014;16.992;2023-04-15T06:37:33;5.50;;;1.60;;
72198;SDS011;60103;51.014;16.992;2023-04-15T06:40:03;5.30;;;1.70;;
72198;SDS011;60103;51.014;16.992;2023-04-15T06:42:32;4.80;;;1.30;;
72198;SDS011;60103;51.014;16.992;2023-04-15T06:45:01;5.00;;;1.40;;
72198;SDS011;60103;51.014;16.992;2023-04-15T06:47:30;3.90;;;1.00;;
72198;SDS011;60103;51.014;16.992;2023-04-15T06:49:59;3.90;;;1.00;;
72198;SDS011;60103;51.014;16.992;2023-04-15T06:52:28;3.70;;;1.00;;
72198;SDS011;60103;51.014;16.992;2023-04-15T06:54:57;3.50;;;0.90;;
72198;SDS011;60103;51.014;16.992;2023-04-15T06:57:27;2.90;;;0.80;;
72198;SDS011;60103;51.014;16.992;2023-04-15T06:59:56;3.70;;;0.90;;
72198;SDS011;60103;51.014;16.992;2023-04-15T07:02:26;2.50;;;0.60;;
72198;SDS011;60103;51.014;16.992;2023-04-15T07:04:55;3.40;;;1.10;;
72198;SDS011;60103;51.014;16.992;2023-04-15T07:07:24;3.00;;;0.60;;
72198;SDS011;60103;51.014;16.992;2023-04-15T07:09:53;2.30;;;0.70;;
72198;SDS011;60103;51.014;16.992;2023-04-15T07:12:22;2.70;;;0.70;;
72198;SDS011;60103;51.014;16.992;2023-04-15T07:14:51;2.40;;;0.60;;
72198;SDS011;60103;51.014;16.992;2023-04-15T07:17:20;3.20;;;0.80;;
72198;SDS011;60103;51.014;16.992;2023-04-15T07:19:49;2.60;;;0.90;;
72198;SDS011;60103;51.014;16.992;2023-04-15T07:22:18;2.30;;;0.80;;
72198;SDS011;60103;51.014;16.992;2023-04-15T07:24:47;2.30;;;0.70;;
72198;SDS011;60103;51.014;16.992;2023-04-15T07:27:16;3.30;;;0.70;;
72198;SDS011;60103;51.014;16.992;2023-04-15T07:29:45;2.90;;;0.90;;
72198;SDS011;60103;51.014;16.992;2023-04-15T07:32:14;3.30;;;0.80;;
72198;SDS011;60103;51.014;16.992;2023-04-15T07:34:43;3.00;;;0.70;;
72198;SDS011;60103;51.014;16.992;2023-04-15T07:37:13;2.70;;;0.80;;
72198;SDS011;60103;51.014;16.992;2023-04-15T07:39:42;2.40;;;0.70;;
72198;SDS011;60103;51.014;16.992;2023-04-15T07:42:11;3.60;;;1.00;;
72198;SDS011;60103;51.014;16.992;2023-04-15T07:44:40;3.70;;;0.90;;
72198;SDS011;60103;51.014;16.992;2023-04-15T07:47:09;2.60;;;0.70;;
72198;SDS011;60103;51.014;16.992;2023-04-15T07:49:38;3.20;;;0.90;;
72198;SDS011;60103;51.014;16.992;2023-04-15T07:52:06;2.30;;;0.70;;
72198;SDS011;60103;51.014;16.992;2023-04-15T07:54:35;2.40;;;0.80;;
72198;SDS011;60103;51.014;16.992;2023-04-15T07:57:04;2.90;;;0.80;;
72198;SDS011;60103;51.014;16.992;2023-04-15T07:59:33;2.40;;;0.70;;
72198;SDS011;60103;51.014;16.992;2023-04-15T08:02:02;2.90;;;0.80;;
72198;SDS011;60103;51.014;16.992;2023-04-15T08:04:31;3.40;;;0.90;;
72198;SDS011;60103;51.014;16.992;2023-04-15T08:07:02;2.50;;;0.70;;
72198;SDS011;60103;51.014;16.992;2023-04-15T08:09:31;2.80;;;0.80;;
72198;SDS011;60103;51.014;16.992;2023-04-15T08:12:00;2.80;;;0.80;;
72198;SDS011;60103;51.014;16.992;2023-04-15T08:14:29;2.60;;;0.80;;
72198;SDS011;60103;51.014;16.992;2023-04-15T08:16:58;4.10;;;1.20;;
72198;SDS011;60103;51.014;16.992;2023-04-15T08:19:27;4.30;;;1.30;;
72198;SDS011;60103;51.014;16.992;2023-04-15T08:21:56;3.10;;;0.80;;
72198;SDS011;60103;51.014;16.992;2023-04-15T08:24:25;2.60;;;0.60;;
72198;SDS011;60103;51.014;16.992;2023-04-15T08:26:54;3.40;;;0.70;;
72198;SDS011;60103;51.014;16.992;2023-04-15T08:29:25;2.80;;;0.70;;
72198;SDS011;60103;51.014;16.992;2023-04-15T08:31:55;2.40;;;0.70;;
72198;SDS011;60103;51.014;16.992;2023-04-15T08:34:24;3.00;;;0.80;;
72198;SDS011;60103;51.014;16.992;2023-04-15T08:36:53;2.80;;;0.70;;
72198;SDS011;60103;51.014;16.992;2023-04-15T08:39:22;2.40;;;0.70;;
72198;SDS011;60103;51.014;16.992;2023-04-15T08:41:55;2.30;;;0.60;;
72198;SDS011;60103;51.014;16.992;2023-04-15T08:44:29;2.20;;;0.60;;
72198;SDS011;60103;51.014;16.992;2023-04-15T08:47:00;2.20;;;0.60;;
72198;SDS011;60103;51.014;16.992;2023-04-15T08:49:34;2.40;;;0.70;;
72198;SDS011;60103;51.014;16.992;2023-04-15T08:52:07;2.60;;;0.70;;
72198;SDS011;60103;51.014;16.992;2023-04-15T08:54:36;1.80;;;0.50;;
72198;SDS011;60103;51.014;16.992;2023-04-15T08:57:06;2.80;;;0.70;;
72198;SDS011;60103;51.014;16.992;2023-04-15T08:59:35;2.00;;;0.60;;
72198;SDS011;60103;51.014;16.992;2023-04-15T09:02:04;2.80;;;0.60;;
72198;SDS011;60103;51.014;16.992;2023-04-15T09:04:33;3.30;;;0.80;;
72198;SDS011;60103;51.014;16.992;2023-04-15T09:07:02;2.10;;;0.70;;
72198;SDS011;60103;51.014;16.992;2023-04-15T09:09:32;2.60;;;0.60;;
72198;SDS011;60103;51.014;16.992;2023-04-15T09:12:01;2.70;;;0.60;;
72198;SDS011;60103;51.014;16.992;2023-04-15T09:14:29;2.20;;;0.70;;
72198;SDS011;60103;51.014;16.992;2023-04-15T09:17:01;2.70;;;0.80;;
72198;SDS011;60103;51.014;16.992;2023-04-15T09:19:31;2.80;;;0.70;;
72198;SDS011;60103;51.014;16.992;2023-04-15T09:22:03;2.30;;;0.60;;
72198;SDS011;60103;51.014;16.992;2023-04-15T09:24:34;3.50;;;0.60;;
72198;SDS011;60103;51.014;16.992;2023-04-15T09:27:05;2.50;;;0.70;;
72198;SDS011;60103;51.014;16.992;2023-04-15T09:29:34;2.40;;;0.80;;
72198;SDS011;60103;51.014;16.992;2023-04-15T09:32:14;2.80;;;0.60;;
72198;SDS011;60103;51.014;16.992;2023-04-15T09:34:43;2.90;;;0.80;;
72198;SDS011;60103;51.014;16.992;2023-04-15T09:37:13;2.60;;;0.80;;
72198;SDS011;60103;51.014;16.992;2023-04-15T09:39:59;2.20;;;0.60;;
72198;SDS011;60103;51.014;16.992;2023-04-15T09:42:28;1.90;;;0.50;;
72198;SDS011;60103;51.014;16.992;2023-04-15T09:45:06;1.50;;;0.50;;
72198;SDS011;60103;51.014;16.992;2023-04-15T09:47:36;1.90;;;0.70;;
72198;SDS011;60103;51.014;16.992;2023-04-15T09:50:05;2.00;;;0.60;;
72198;SDS011;60103;51.014;16.992;2023-04-15T09:52:39;1.90;;;0.60;;
72198;SDS011;60103;51.014;16.992;2023-04-15T09:55:10;2.60;;;0.70;;
72198;SDS011;60103;51.014;16.992;2023-04-15T09:57:41;1.60;;;0.60;;
72198;SDS011;60103;51.014;16.992;2023-04-15T10:00:11;1.50;;;0.50;;
72198;SDS011;60103;51.014;16.992;2023-04-15T10:02:41;2.60;;;0.70;;
72198;SDS011;60103;51.014;16.992;2023-04-15T10:05:12;2.00;;;0.60;;
72198;SDS011;60103;51.014;16.992;2023-04-15T10:07:42;2.10;;;0.70;;
72198;SDS011;60103;51.014;16.992;2023-04-15T10:10:11;1.80;;;0.90;;
72198;SDS011;60103;51.014;16.992;2023-04-15T10:12:40;2.10;;;0.60;;
72198;SDS011;60103;51.014;16.992;2023-04-15T10:15:13;1.60;;;0.60;;
72198;SDS011;60103;51.014;16.992;2023-04-15T10:17:43;3.60;;;0.80;;
72198;SDS011;60103;51.014;16.992;2023-04-15T10:20:12;1.30;;;0.40;;
72198;SDS011;60103;51.014;16.992;2023-04-15T10:22:42;2.00;;;0.60;;
72198;SDS011;60103;51.014;16.992;2023-04-15T10:25:12;1.90;;;0.60;;
72198;SDS011;60103;51.014;16.992;2023-04-15T10:27:42;2.30;;;0.80;;
72198;SDS011;60103;51.014;16.992;2023-04-15T10:30:11;2.70;;;0.80;;
72198;SDS011;60103;51.014;16.992;2023-04-15T10:32:40;2.30;;;0.70;;
72198;SDS011;60103;51.014;16.992;2023-04-15T10:35:09;2.30;;;0.70;;
72198;SDS011;60103;51.014;16.992;2023-04-15T10:37:39;3.00;;;0.90;;
72198;SDS011;60103;51.014;16.992;2023-04-15T10:40:27;2.80;;;0.80;;
72198;SDS011;60103;51.014;16.992;2023-04-15T10:42:59;2.80;;;0.90;;
72198;SDS011;60103;51.014;16.992;2023-04-15T10:45:33;3.40;;;1.20;;
72198;SDS011;60103;51.014;16.992;2023-04-15T10:48:05;3.10;;;0.90;;
72198;SDS011;60103;51.014;16.992;2023-04-15T10:50:35;2.90;;;0.70;;
72198;SDS011;60103;51.014;16.992;2023-04-15T10:53:05;3.60;;;1.00;;
72198;SDS011;60103;51.014;16.992;2023-04-15T10:55:33;2.80;;;0.80;;
72198;SDS011;60103;51.014;16.992;2023-04-15T10:58:02;2.90;;;0.80;;
72198;SDS011;60103;51.014;16.992;2023-04-15T11:00:31;4.30;;;1.00;;
72198;SDS011;60103;51.014;16.992;2023-04-15T11:03:06;3.40;;;1.00;;
72198;SDS011;60103;51.014;16.992;2023-04-15T11:05:52;3.00;;;0.80;;
72198;SDS011;60103;51.014;16.992;2023-04-15T11:08:51;3.10;;;0.80;;
72198;SDS011;60103;51.014;16.992;2023-04-15T11:14:40;3.70;;;1.00;;
72198;SDS011;60103;51.014;16.992;2023-04-15T11:17:10;2.90;;;0.90;;
72198;SDS011;60103;51.014;16.992;2023-04-15T11:19:43;2.50;;;0.80;;
72198;SDS011;60103;51.014;16.992;2023-04-15T11:22:12;2.50;;;0.90;;
72198;SDS011;60103;51.014;16.992;2023-04-15T11:24:47;3.40;;;0.80;;
72198;SDS011;60103;51.014;16.992;2023-04-15T11:27:22;2.80;;;0.80;;
72198;SDS011;60103;51.014;16.992;2023-04-15T11:29:51;3.20;;;1.00;;
72198;SDS011;60103;51.014;16.992;2023-04-15T11:32:20;2.70;;;0.70;;
72198;SDS011;60103;51.014;16.992;2023-04-15T11:34:50;3.10;;;0.70;;
72198;SDS011;60103;51.014;16.992;2023-04-15T11:37:26;3.10;;;0.90;;
72198;SDS011;60103;51.014;16.992;2023-04-15T11:39:56;2.40;;;0.70;;
72198;SDS011;60103;51.014;16.992;2023-04-15T11:42:25;2.70;;;0.90;;
72198;SDS011;60103;51.014;16.992;2023-04-15T11:45:13;3.00;;;0.90;;
72198;SDS011;60103;51.014;16.992;2023-04-15T11:47:42;2.50;;;0.80;;
72198;SDS011;60103;51.014;16.992;2023-04-15T11:50:18;3.30;;;0.80;;
72198;SDS011;60103;51.014;16.992;2023-04-15T11:52:58;2.20;;;0.70;;
72198;SDS011;60103;51.014;16.992;2023-04-15T11:55:45;2.60;;;0.80;;
72198;SDS011;60103;51.014;16.992;2023-04-15T11:58:16;3.20;;;0.80;;
72198;SDS011;60103;51.014;16.992;2023-04-15T12:01:19;2.70;;;0.70;;
72198;SDS011;60103;51.014;16.992;2023-04-15T12:03:51;4.10;;;0.90;;
72198;SDS011;60103;51.014;16.992;2023-04-15T12:06:23;3.30;;;0.90;;
72198;SDS011;60103;51.014;16.992;2023-04-15T12:11:38;3.20;;;0.90;;
72198;SDS011;60103;51.014;16.992;2023-04-15T12:14:09;3.60;;;1.00;;
72198;SDS011;60103;51.014;16.992;2023-04-15T12:16:51;3.30;;;0.90;;
72198;SDS011;60103;51.014;16.992;2023-04-15T12:19:40;4.60;;;1.10;;
72198;SDS011;60103;51.014;16.992;2023-04-15T12:22:14;2.90;;;0.90;;
72198;SDS011;60103;51.014;16.992;2023-04-15T12:24:44;3.80;;;0.90;;
72198;SDS011;60103;51.014;16.992;2023-04-15T12:27:15;3.30;;;0.90;;
72198;SDS011;60103;51.014;16.992;2023-04-15T12:29:45;3.70;;;0.90;;
72198;SDS011;60103;51.014;16.992;2023-04-15T12:32:16;4.10;;;0.90;;
72198;SDS011;60103;51.014;16.992;2023-04-15T12:34:51;4.20;;;1.00;;
72198;SDS011;60103;51.014;16.992;2023-04-15T12:37:25;3.80;;;1.10;;
72198;SDS011;60103;51.014;16.992;2023-04-15T12:39:54;3.70;;;1.10;;
72198;SDS011;60103;51.014;16.992;2023-04-15T12:42:22;3.80;;;1.10;;
72198;SDS011;60103;51.014;16.992;2023-04-15T12:44:52;3.10;;;0.90;;
72198;SDS011;60103;51.014;16.992;2023-04-15T12:47:21;3.30;;;1.00;;
72198;SDS011;60103;51.014;16.992;2023-04-15T12:49:50;3.20;;;0.80;;
72198;SDS011;60103;51.014;16.992;2023-04-15T12:52:19;4.60;;;1.00;;
72198;SDS011;60103;51.014;16.992;2023-04-15T12:54:48;3.50;;;0.90;;
72198;SDS011;60103;51.014;16.992;2023-04-15T12:57:16;7.20;;;1.00;;
72198;SDS011;60103;51.014;16.992;2023-04-15T12:59:45;4.00;;;1.00;;
72198;SDS011;60103;51.014;16.992;2023-04-15T13:02:14;4.20;;;1.10;;
72198;SDS011;60103;51.014;16.992;2023-04-15T13:04:43;3.80;;;1.00;;
72198;SDS011;60103;51.014;16.992;2023-04-15T13:07:12;3.30;;;1.00;;
72198;SDS011;60103;51.014;16.992;2023-04-15T13:09:43;3.10;;;0.80;;
72198;SDS011;60103;51.014;16.992;2023-04-15T13:12:12;3.30;;;0.80;;
72198;SDS011;60103;51.014;16.992;2023-04-15T13:14:43;3.50;;;0.90;;
72198;SDS011;60103;51.014;16.992;2023-04-15T13:17:11;3.50;;;1.00;;
72198;SDS011;60103;51.014;16.992;2023-04-15T13:19:40;4.30;;;0.90;;
72198;SDS011;60103;51.014;16.992;2023-04-15T13:22:09;3.00;;;0.80;;
72198;SDS011;60103;51.014;16.992;2023-04-15T13:24:39;3.00;;;0.80;;
72198;SDS011;60103;51.014;16.992;2023-04-15T13:27:08;4.60;;;1.10;;
72198;SDS011;60103;51.014;16.992;2023-04-15T13:29:37;2.40;;;0.70;;
72198;SDS011;60103;51.014;16.992;2023-04-15T13:32:07;2.50;;;0.70;;
72198;SDS011;60103;51.014;16.992;2023-04-15T13:34:36;3.30;;;0.80;;
72198;SDS011;60103;51.014;16.992;2023-04-15T13:37:05;4.20;;;1.00;;
72198;SDS011;60103;51.014;16.992;2023-04-15T13:39:35;3.70;;;1.10;;
72198;SDS011;60103;51.014;16.992;2023-04-15T13:42:03;3.50;;;1.00;;
72198;SDS011;60103;51.014;16.992;2023-04-15T13:44:33;4.20;;;1.00;;
72198;SDS011;60103;51.014;16.992;2023-04-15T13:47:02;3.10;;;0.80;;
72198;SDS011;60103;51.014;16.992;2023-04-15T13:49:31;3.50;;;0.90;;
72198;SDS011;60103;51.014;16.992;2023-04-15T13:52:00;3.10;;;1.10;;
72198;SDS011;60103;51.014;16.992;2023-04-15T13:54:29;3.20;;;0.90;;
72198;SDS011;60103;51.014;16.992;2023-04-15T13:57:05;3.20;;;0.90;;
72198;SDS011;60103;51.014;16.992;2023-04-15T13:59:35;3.90;;;1.10;;
72198;SDS011;60103;51.014;16.992;2023-04-15T14:02:04;3.90;;;1.00;;
72198;SDS011;60103;51.014;16.992;2023-04-15T14:04:33;4.30;;;1.00;;
72198;SDS011;60103;51.014;16.992;2023-04-15T14:07:02;2.60;;;0.80;;
72198;SDS011;60103;51.014;16.992;2023-04-15T14:09:32;4.10;;;1.10;;
72198;SDS011;60103;51.014;16.992;2023-04-15T14:12:02;4.00;;;1.00;;
72198;SDS011;60103;51.014;16.992;2023-04-15T14:14:32;3.70;;;0.90;;
72198;SDS011;60103;51.014;16.992;2023-04-15T14:17:01;4.00;;;0.90;;
72198;SDS011;60103;51.014;16.992;2023-04-15T14:19:31;3.00;;;0.80;;
72198;SDS011;60103;51.014;16.992;2023-04-15T14:22:00;2.80;;;0.70;;
72198;SDS011;60103;51.014;16.992;2023-04-15T14:24:30;3.30;;;1.00;;
72198;SDS011;60103;51.014;16.992;2023-04-15T14:27:00;3.00;;;0.70;;
72198;SDS011;60103;51.014;16.992;2023-04-15T14:29:29;3.70;;;0.90;;
72198;SDS011;60103;51.014;16.992;2023-04-15T14:32:00;2.90;;;0.80;;
72198;SDS011;60103;51.014;16.992;2023-04-15T14:34:39;3.50;;;0.90;;
72198;SDS011;60103;51.014;16.992;2023-04-15T14:37:08;3.00;;;0.90;;
72198;SDS011;60103;51.014;16.992;2023-04-15T14:39:37;4.10;;;0.90;;
72198;SDS011;60103;51.014;16.992;2023-04-15T14:42:06;3.00;;;0.80;;
72198;SDS011;60103;51.014;16.992;2023-04-15T14:44:35;2.10;;;0.70;;
72198;SDS011;60103;51.014;16.992;2023-04-15T14:47:04;2.70;;;0.70;;
72198;SDS011;60103;51.014;16.992;2023-04-15T14:49:34;3.10;;;0.80;;
72198;SDS011;60103;51.014;16.992;2023-04-15T14:52:04;2.90;;;0.90;;
72198;SDS011;60103;51.014;16.992;2023-04-15T14:54:33;2.60;;;0.90;;